sensor_id;sensor_type;location;lat;lon;timestamp;temperature;humidity
53053;DHT22;38934;52.690;6.184;2023-12-04T00:00:37;0.50;99.90
53053;DHT22;38934;52.690;6.184;2023-12-04T00:03:03;0.40;99.90
53053;DHT22;38934;52.690;6.184;2023-12-04T00:05:29;0.40;99.90
53053;DHT22;38934;52.690;6.184;2023-12-04T00:07:54;0.50;99.90
53053;DHT22;38934;52.690;6.184;2023-12-04T00:10:20;0.50;99.90
53053;DHT22;38934;52.690;6.184;2023-12-04T00:12:46;0.50;99.90
53053;DHT22;38934;52.690;6.184;2023-12-04T00:15:11;1.30;99.90
53053;DHT22;38934;52.690;6.184;2023-12-04T00:17:37;0.50;99.90
53053;DHT22;38934;52.690;6.184;2023-12-04T00:20:09;0.40;99.90
53053;DHT22;38934;52.690;6.184;2023-12-04T00:22:38;0.50;99.90
53053;DHT22;38934;52.690;6.184;2023-12-04T00:25:05;0.50;99.90
53053;DHT22;38934;52.690;6.184;2023-12-04T00:27:31;0.50;99.90
53053;DHT22;38934;52.690;6.184;2023-12-04T00:29:57;0.50;99.90
53053;DHT22;38934;52.690;6.184;2023-12-04T00:32:24;0.50;99.90
53053;DHT22;38934;52.690;6.184;2023-12-04T00:34:50;0.50;99.90
53053;DHT22;38934;52.690;6.184;2023-12-04T00:37:15;0.50;99.90
53053;DHT22;38934;52.690;6.184;2023-12-04T00:39:41;1.20;99.90
53053;DHT22;38934;52.690;6.184;2023-12-04T00:42:07;0.50;99.90
53053;DHT22;38934;52.690;6.184;2023-12-04T00:44:32;1.10;99.90
53053;DHT22;38934;52.690;6.184;2023-12-04T00:46:58;0.60;99.90
53053;DHT22;38934;52.690;6.184;2023-12-04T00:49:24;0.50;99.90
53053;DHT22;38934;52.690;6.184;2023-12-04T00:51:51;0.50;99.90
53053;DHT22;38934;52.690;6.184;2023-12-04T00:54:17;0.50;99.90
53053;DHT22;38934;52.690;6.184;2023-12-04T00:56:43;0.60;99.90
53053;DHT22;38934;52.690;6.184;2023-12-04T00:59:09;0.60;99.90
53053;DHT22;38934;52.690;6.184;2023-12-04T01:01:38;0.60;99.90
53053;DHT22;38934;52.690;6.184;2023-12-04T01:04:04;0.50;99.90
53053;DHT22;38934;52.690;6.184;2023-12-04T01:06:29;0.60;99.90
53053;DHT22;38934;52.690;6.184;2023-12-04T01:08:55;0.60;99.90
53053;DHT22;38934;52.690;6.184;2023-12-04T01:11:21;0.50;99.90
53053;DHT22;38934;52.690;6.184;2023-12-04T01:13:48;0.50;99.90
53053;DHT22;38934;52.690;6.184;2023-12-04T01:16:14;1.30;99.90
53053;DHT22;38934;52.690;6.184;2023-12-04T01:18:41;0.60;99.90
53053;DHT22;38934;52.690;6.184;2023-12-04T01:21:07;0.60;99.90
53053;DHT22;38934;52.690;6.184;2023-12-04T01:23:37;0.60;99.90
53053;DHT22;38934;52.690;6.184;2023-12-04T01:26:03;1.00;99.90
53053;DHT22;38934;52.690;6.184;2023-12-04T01:28:29;0.60;99.90
53053;DHT22;38934;52.690;6.184;2023-12-04T01:30:55;0.50;99.90
53053;DHT22;38934;52.690;6.184;2023-12-04T01:33:20;0.60;99.90
53053;DHT22;38934;52.690;6.184;2023-12-04T01:35:46;0.60;99.90
53053;DHT22;38934;52.690;6.184;2023-12-04T01:38:11;0.60;99.90
53053;DHT22;38934;52.690;6.184;2023-12-04T01:40:37;0.60;99.90
53053;DHT22;38934;52.690;6.184;2023-12-04T01:43:03;0.60;99.90
53053;DHT22;38934;52.690;6.184;2023-12-04T01:45:28;0.60;99.90
53053;DHT22;38934;52.690;6.184;2023-12-04T01:47:54;0.60;99.90
53053;DHT22;38934;52.690;6.184;2023-12-04T01:50:20;0.60;99.90
53053;DHT22;38934;52.690;6.184;2023-12-04T01:52:46;0.60;99.90
53053;DHT22;38934;52.690;6.184;2023-12-04T01:55:12;0.60;99.90
53053;DHT22;38934;52.690;6.184;2023-12-04T01:57:38;0.60;99.90
53053;DHT22;38934;52.690;6.184;2023-12-04T02:00:04;0.60;99.90
53053;DHT22;38934;52.690;6.184;2023-12-04T02:02:31;0.60;99.90
53053;DHT22;38934;52.690;6.184;2023-12-04T02:04:58;0.60;99.90
53053;DHT22;38934;52.690;6.184;2023-12-04T02:07:25;0.60;99.90
53053;DHT22;38934;52.690;6.184;2023-12-04T02:09:50;0.60;99.90
53053;DHT22;38934;52.690;6.184;2023-12-04T02:12:17;0.60;99.90
53053;DHT22;38934;52.690;6.184;2023-12-04T02:14:42;0.60;99.90
53053;DHT22;38934;52.690;6.184;2023-12-04T02:17:09;0.60;99.90
53053;DHT22;38934;52.690;6.184;2023-12-04T02:19:35;0.60;99.90
53053;DHT22;38934;52.690;6.184;2023-12-04T02:22:01;0.60;99.90
53053;DHT22;38934;52.690;6.184;2023-12-04T02:24:27;0.60;99.90
53053;DHT22;38934;52.690;6.184;2023-12-04T02:26:58;0.60;99.90
53053;DHT22;38934;52.690;6.184;2023-12-04T02:29:37;0.60;99.90
53053;DHT22;38934;52.690;6.184;2023-12-04T02:32:05;0.50;99.90
53053;DHT22;38934;52.690;6.184;2023-12-04T02:34:35;0.50;99.90
53053;DHT22;38934;52.690;6.184;2023-12-04T02:37:02;0.60;99.90
53053;DHT22;38934;52.690;6.184;2023-12-04T02:39:29;0.60;99.90
53053;DHT22;38934;52.690;6.184;2023-12-04T02:41:55;0.60;99.90
53053;DHT22;38934;52.690;6.184;2023-12-04T02:44:21;0.60;99.90
53053;DHT22;38934;52.690;6.184;2023-12-04T02:46:46;0.60;99.90
53053;DHT22;38934;52.690;6.184;2023-12-04T02:49:12;0.60;99.90
53053;DHT22;38934;52.690;6.184;2023-12-04T02:51:40;0.60;99.90
53053;DHT22;38934;52.690;6.184;2023-12-04T02:54:06;0.60;99.90
53053;DHT22;38934;52.690;6.184;2023-12-04T02:56:32;0.60;99.90
53053;DHT22;38934;52.690;6.184;2023-12-04T02:58:57;0.60;99.90
53053;DHT22;38934;52.690;6.184;2023-12-04T03:01:23;0.70;99.90
53053;DHT22;38934;52.690;6.184;2023-12-04T03:03:49;0.70;99.90
53053;DHT22;38934;52.690;6.184;2023-12-04T03:06:14;0.70;99.90
53053;DHT22;38934;52.690;6.184;2023-12-04T03:08:42;0.70;99.90
53053;DHT22;38934;52.690;6.184;2023-12-04T03:11:08;0.70;99.90
53053;DHT22;38934;52.690;6.184;2023-12-04T03:13:34;0.60;99.90
53053;DHT22;38934;52.690;6.184;2023-12-04T03:15:59;1.30;99.90
53053;DHT22;38934;52.690;6.184;2023-12-04T03:18:26;0.70;99.90
53053;DHT22;38934;52.690;6.184;2023-12-04T03:20:52;0.70;99.90
53053;DHT22;38934;52.690;6.184;2023-12-04T03:23:17;0.70;99.90
53053;DHT22;38934;52.690;6.184;2023-12-04T03:25:43;0.70;99.90
53053;DHT22;38934;52.690;6.184;2023-12-04T03:28:09;0.70;99.90
53053;DHT22;38934;52.690;6.184;2023-12-04T03:30:34;0.70;99.90
53053;DHT22;38934;52.690;6.184;2023-12-04T03:33:00;0.70;99.90
53053;DHT22;38934;52.690;6.184;2023-12-04T03:35:26;0.70;99.90
53053;DHT22;38934;52.690;6.184;2023-12-04T03:37:52;0.70;99.90
53053;DHT22;38934;52.690;6.184;2023-12-04T03:40:18;0.70;99.90
53053;DHT22;38934;52.690;6.184;2023-12-04T03:42:43;0.70;99.90
53053;DHT22;38934;52.690;6.184;2023-12-04T03:45:09;0.70;99.90
53053;DHT22;38934;52.690;6.184;2023-12-04T03:47:35;0.70;99.90
53053;DHT22;38934;52.690;6.184;2023-12-04T03:50:01;0.70;99.90
53053;DHT22;38934;52.690;6.184;2023-12-04T03:52:26;0.70;99.90
53053;DHT22;38934;52.690;6.184;2023-12-04T03:54:52;0.70;99.90
53053;DHT22;38934;52.690;6.184;2023-12-04T03:57:18;0.70;99.90
53053;DHT22;38934;52.690;6.184;2023-12-04T03:59:44;0.70;99.90
53053;DHT22;38934;52.690;6.184;2023-12-04T04:02:10;0.70;99.90
53053;DHT22;38934;52.690;6.184;2023-12-04T04:04:36;0.70;99.90
53053;DHT22;38934;52.690;6.184;2023-12-04T04:07:01;0.70;99.90
53053;DHT22;38934;52.690;6.184;2023-12-04T04:09:27;0.70;99.90
53053;DHT22;38934;52.690;6.184;2023-12-04T04:11:53;0.60;99.90
53053;DHT22;38934;52.690;6.184;2023-12-04T04:14:18;0.70;99.90
53053;DHT22;38934;52.690;6.184;2023-12-04T04:16:44;0.70;99.90
53053;DHT22;38934;52.690;6.184;2023-12-04T04:19:10;0.70;99.90
53053;DHT22;38934;52.690;6.184;2023-12-04T04:21:39;0.70;99.90
53053;DHT22;38934;52.690;6.184;2023-12-04T04:24:06;0.70;99.90
53053;DHT22;38934;52.690;6.184;2023-12-04T04:26:32;0.70;99.90
53053;DHT22;38934;52.690;6.184;2023-12-04T04:28:58;0.70;99.90
53053;DHT22;38934;52.690;6.184;2023-12-04T04:31:24;0.70;99.90
53053;DHT22;38934;52.690;6.184;2023-12-04T04:33:50;0.70;99.90
53053;DHT22;38934;52.690;6.184;2023-12-04T04:36:15;0.70;99.90
53053;DHT22;38934;52.690;6.184;2023-12-04T04:38:41;0.70;99.90
53053;DHT22;38934;52.690;6.184;2023-12-04T04:41:14;0.70;99.90
53053;DHT22;38934;52.690;6.184;2023-12-04T04:43:40;0.70;99.90
53053;DHT22;38934;52.690;6.184;2023-12-04T04:46:06;0.70;99.90
53053;DHT22;38934;52.690;6.184;2023-12-04T04:48:32;0.60;99.90
53053;DHT22;38934;52.690;6.184;2023-12-04T04:50:58;0.60;99.90
53053;DHT22;38934;52.690;6.184;2023-12-04T04:53:23;0.70;99.90
53053;DHT22;38934;52.690;6.184;2023-12-04T04:55:49;0.60;99.90
53053;DHT22;38934;52.690;6.184;2023-12-04T04:58:16;0.70;99.90
53053;DHT22;38934;52.690;6.184;2023-12-04T05:00:41;0.70;99.90
53053;DHT22;38934;52.690;6.184;2023-12-04T05:03:07;0.70;99.90
53053;DHT22;38934;52.690;6.184;2023-12-04T05:05:33;0.70;99.90
53053;DHT22;38934;52.690;6.184;2023-12-04T05:08:00;0.70;99.90
53053;DHT22;38934;52.690;6.184;2023-12-04T05:10:26;0.70;99.90
53053;DHT22;38934;52.690;6.184;2023-12-04T05:12:51;0.70;99.90
53053;DHT22;38934;52.690;6.184;2023-12-04T05:15:17;0.60;99.90
53053;DHT22;38934;52.690;6.184;2023-12-04T05:17:43;0.60;99.90
53053;DHT22;38934;52.690;6.184;2023-12-04T05:20:09;0.70;99.90
53053;DHT22;38934;52.690;6.184;2023-12-04T05:22:34;0.70;99.90
53053;DHT22;38934;52.690;6.184;2023-12-04T05:25:00;0.70;99.90
53053;DHT22;38934;52.690;6.184;2023-12-04T05:27:26;0.70;99.90
53053;DHT22;38934;52.690;6.184;2023-12-04T05:29:52;0.70;99.90
53053;DHT22;38934;52.690;6.184;2023-12-04T05:32:18;0.60;99.90
53053;DHT22;38934;52.690;6.184;2023-12-04T05:34:43;0.60;99.90
53053;DHT22;38934;52.690;6.184;2023-12-04T05:37:09;0.60;99.90
53053;DHT22;38934;52.690;6.184;2023-12-04T05:39:35;0.60;99.90
53053;DHT22;38934;52.690;6.184;2023-12-04T05:42:00;0.60;99.90
53053;DHT22;38934;52.690;6.184;2023-12-04T05:44:26;0.60;99.90
53053;DHT22;38934;52.690;6.184;2023-12-04T05:46:51;0.50;99.90
53053;DHT22;38934;52.690;6.184;2023-12-04T05:49:17;0.60;99.90
53053;DHT22;38934;52.690;6.184;2023-12-04T05:51:43;1.00;99.90
53053;DHT22;38934;52.690;6.184;2023-12-04T05:54:08;0.50;99.90
53053;DHT22;38934;52.690;6.184;2023-12-04T05:56:34;0.50;99.90
53053;DHT22;38934;52.690;6.184;2023-12-04T05:59:00;0.50;99.90
53053;DHT22;38934;52.690;6.184;2023-12-04T06:01:25;0.50;99.90
53053;DHT22;38934;52.690;6.184;2023-12-04T06:03:51;0.50;99.90
53053;DHT22;38934;52.690;6.184;2023-12-04T06:06:17;0.50;99.90
53053;DHT22;38934;52.690;6.184;2023-12-04T06:08:43;0.50;99.90
53053;DHT22;38934;52.690;6.184;2023-12-04T06:11:08;0.50;99.90
53053;DHT22;38934;52.690;6.184;2023-12-04T06:13:34;0.50;99.90
53053;DHT22;38934;52.690;6.184;2023-12-04T06:15:59;0.50;99.90
53053;DHT22;38934;52.690;6.184;2023-12-04T06:18:25;0.50;99.90
53053;DHT22;38934;52.690;6.184;2023-12-04T06:20:51;0.50;99.90
53053;DHT22;38934;52.690;6.184;2023-12-04T06:23:16;0.50;99.90
53053;DHT22;38934;52.690;6.184;2023-12-04T06:25:43;0.50;99.90
53053;DHT22;38934;52.690;6.184;2023-12-04T06:28:09;0.50;99.90
53053;DHT22;38934;52.690;6.184;2023-12-04T06:30:35;0.50;99.90
53053;DHT22;38934;52.690;6.184;2023-12-04T06:33:01;0.50;99.90
53053;DHT22;38934;52.690;6.184;2023-12-04T06:35:27;0.50;99.90
53053;DHT22;38934;52.690;6.184;2023-12-04T06:37:54;0.50;99.90
53053;DHT22;38934;52.690;6.184;2023-12-04T06:40:20;0.50;99.90
53053;DHT22;38934;52.690;6.184;2023-12-04T06:42:47;0.50;99.90
53053;DHT22;38934;52.690;6.184;2023-12-04T06:45:13;0.50;99.90
53053;DHT22;38934;52.690;6.184;2023-12-04T06:47:40;0.50;99.90
53053;DHT22;38934;52.690;6.184;2023-12-04T06:50:08;0.50;99.90
53053;DHT22;38934;52.690;6.184;2023-12-04T06:52:34;0.50;99.90
53053;DHT22;38934;52.690;6.184;2023-12-04T06:55:00;0.60;99.90
53053;DHT22;38934;52.690;6.184;2023-12-04T06:57:26;0.60;99.90
53053;DHT22;38934;52.690;6.184;2023-12-04T06:59:52;0.50;99.90
53053;DHT22;38934;52.690;6.184;2023-12-04T07:02:18;0.60;99.90
53053;DHT22;38934;52.690;6.184;2023-12-04T07:04:43;0.50;99.90
53053;DHT22;38934;52.690;6.184;2023-12-04T07:07:09;0.60;99.90
53053;DHT22;38934;52.690;6.184;2023-12-04T07:09:35;0.60;99.90
53053;DHT22;38934;52.690;6.184;2023-12-04T07:12:00;0.50;99.90
53053;DHT22;38934;52.690;6.184;2023-12-04T07:14:28;0.60;99.90
53053;DHT22;38934;52.690;6.184;2023-12-04T07:16:53;0.60;99.90
53053;DHT22;38934;52.690;6.184;2023-12-04T07:19:19;0.60;99.90
53053;DHT22;38934;52.690;6.184;2023-12-04T07:21:45;0.60;99.90
53053;DHT22;38934;52.690;6.184;2023-12-04T07:24:11;0.60;99.90
53053;DHT22;38934;52.690;6.184;2023-12-04T07:26:36;0.60;99.90
53053;DHT22;38934;52.690;6.184;2023-12-04T07:29:03;0.60;99.90
53053;DHT22;38934;52.690;6.184;2023-12-04T07:31:29;0.70;99.90
53053;DHT22;38934;52.690;6.184;2023-12-04T07:33:55;0.60;99.90
53053;DHT22;38934;52.690;6.184;2023-12-04T07:36:21;0.70;99.90
53053;DHT22;38934;52.690;6.184;2023-12-04T07:38:47;1.40;99.90
53053;DHT22;38934;52.690;6.184;2023-12-04T07:41:13;0.70;99.90
53053;DHT22;38934;52.690;6.184;2023-12-04T07:43:39;0.70;99.90
53053;DHT22;38934;52.690;6.184;2023-12-04T07:46:05;1.00;99.90
53053;DHT22;38934;52.690;6.184;2023-12-04T07:48:31;0.70;99.90
53053;DHT22;38934;52.690;6.184;2023-12-04T07:50:57;0.70;99.90
53053;DHT22;38934;52.690;6.184;2023-12-04T07:53:22;0.70;99.90
53053;DHT22;38934;52.690;6.184;2023-12-04T07:55:49;0.70;99.90
53053;DHT22;38934;52.690;6.184;2023-12-04T07:58:17;0.70;99.90
53053;DHT22;38934;52.690;6.184;2023-12-04T08:00:43;0.70;99.90
53053;DHT22;38934;52.690;6.184;2023-12-04T08:03:09;0.80;99.90
53053;DHT22;38934;52.690;6.184;2023-12-04T08:05:35;1.00;99.90
53053;DHT22;38934;52.690;6.184;2023-12-04T08:08:00;1.00;99.90
53053;DHT22;38934;52.690;6.184;2023-12-04T08:10:26;0.70;99.90
53053;DHT22;38934;52.690;6.184;2023-12-04T08:12:52;0.70;99.90
53053;DHT22;38934;52.690;6.184;2023-12-04T08:15:18;0.80;99.90
53053;DHT22;38934;52.690;6.184;2023-12-04T08:17:43;0.80;99.90
53053;DHT22;38934;52.690;6.184;2023-12-04T08:20:12;0.70;99.90
53053;DHT22;38934;52.690;6.184;2023-12-04T08:22:42;0.80;99.90
53053;DHT22;38934;52.690;6.184;2023-12-04T08:25:10;0.80;99.90
53053;DHT22;38934;52.690;6.184;2023-12-04T08:27:36;0.80;99.90
53053;DHT22;38934;52.690;6.184;2023-12-04T08:30:04;0.80;99.90
53053;DHT22;38934;52.690;6.184;2023-12-04T08:32:30;0.90;99.90
53053;DHT22;38934;52.690;6.184;2023-12-04T08:34:56;0.80;99.90
53053;DHT22;38934;52.690;6.184;2023-12-04T08:37:22;0.90;99.90
53053;DHT22;38934;52.690;6.184;2023-12-04T08:39:48;0.90;99.90
53053;DHT22;38934;52.690;6.184;2023-12-04T08:42:13;0.90;99.90
53053;DHT22;38934;52.690;6.184;2023-12-04T08:44:39;1.00;99.90
53053;DHT22;38934;52.690;6.184;2023-12-04T08:47:05;1.00;99.90
53053;DHT22;38934;52.690;6.184;2023-12-04T08:49:31;1.00;99.90
53053;DHT22;38934;52.690;6.184;2023-12-04T08:51:58;1.00;99.90
53053;DHT22;38934;52.690;6.184;2023-12-04T08:54:24;1.10;99.90
53053;DHT22;38934;52.690;6.184;2023-12-04T08:56:49;1.10;99.90
53053;DHT22;38934;52.690;6.184;2023-12-04T08:59:15;1.20;99.90
53053;DHT22;38934;52.690;6.184;2023-12-04T09:01:42;1.20;99.90
53053;DHT22;38934;52.690;6.184;2023-12-04T09:04:09;1.30;99.90
53053;DHT22;38934;52.690;6.184;2023-12-04T09:06:35;1.30;99.90
53053;DHT22;38934;52.690;6.184;2023-12-04T09:09:01;1.30;99.90
53053;DHT22;38934;52.690;6.184;2023-12-04T09:11:28;1.40;99.90
53053;DHT22;38934;52.690;6.184;2023-12-04T09:13:54;1.40;99.90
53053;DHT22;38934;52.690;6.184;2023-12-04T09:16:20;1.40;99.90
53053;DHT22;38934;52.690;6.184;2023-12-04T09:18:45;1.50;99.90
53053;DHT22;38934;52.690;6.184;2023-12-04T09:21:12;1.50;99.90
53053;DHT22;38934;52.690;6.184;2023-12-04T09:23:38;1.70;99.90
53053;DHT22;38934;52.690;6.184;2023-12-04T09:26:04;1.60;99.90
53053;DHT22;38934;52.690;6.184;2023-12-04T09:28:29;1.70;99.90
53053;DHT22;38934;52.690;6.184;2023-12-04T09:30:55;1.70;99.90
53053;DHT22;38934;52.690;6.184;2023-12-04T09:33:21;1.80;99.90
53053;DHT22;38934;52.690;6.184;2023-12-04T09:35:46;1.80;99.90
53053;DHT22;38934;52.690;6.184;2023-12-04T09:38:12;1.90;99.90
53053;DHT22;38934;52.690;6.184;2023-12-04T09:40:38;2.00;99.90
53053;DHT22;38934;52.690;6.184;2023-12-04T09:43:05;2.00;99.90
53053;DHT22;38934;52.690;6.184;2023-12-04T09:45:32;2.00;99.90
53053;DHT22;38934;52.690;6.184;2023-12-04T09:47:58;2.00;99.90
53053;DHT22;38934;52.690;6.184;2023-12-04T09:50:25;2.00;99.90
53053;DHT22;38934;52.690;6.184;2023-12-04T09:52:51;2.00;99.90
53053;DHT22;38934;52.690;6.184;2023-12-04T09:55:20;2.00;99.90
53053;DHT22;38934;52.690;6.184;2023-12-04T09:57:46;2.10;99.90
53053;DHT22;38934;52.690;6.184;2023-12-04T10:00:13;2.10;99.90
53053;DHT22;38934;52.690;6.184;2023-12-04T10:02:41;2.10;99.90
53053;DHT22;38934;52.690;6.184;2023-12-04T10:05:07;2.10;99.90
53053;DHT22;38934;52.690;6.184;2023-12-04T10:07:33;2.20;99.90
53053;DHT22;38934;52.690;6.184;2023-12-04T10:09:59;2.10;99.90
53053;DHT22;38934;52.690;6.184;2023-12-04T10:12:26;2.20;99.90
53053;DHT22;38934;52.690;6.184;2023-12-04T10:15:09;2.10;99.90
53053;DHT22;38934;52.690;6.184;2023-12-04T10:17:36;2.20;99.90
53053;DHT22;38934;52.690;6.184;2023-12-04T10:20:07;2.10;99.90
53053;DHT22;38934;52.690;6.184;2023-12-04T10:22:38;2.20;99.90
53053;DHT22;38934;52.690;6.184;2023-12-04T10:25:16;2.20;99.90
53053;DHT22;38934;52.690;6.184;2023-12-04T10:27:44;2.20;99.90
53053;DHT22;38934;52.690;6.184;2023-12-04T10:30:28;2.20;99.90
53053;DHT22;38934;52.690;6.184;2023-12-04T10:32:54;2.20;99.90
53053;DHT22;38934;52.690;6.184;2023-12-04T10:35:20;2.20;99.90
53053;DHT22;38934;52.690;6.184;2023-12-04T10:37:46;2.80;99.90
53053;DHT22;38934;52.690;6.184;2023-12-04T10:40:11;2.90;99.90
53053;DHT22;38934;52.690;6.184;2023-12-04T10:42:47;2.20;99.90
53053;DHT22;38934;52.690;6.184;2023-12-04T10:45:13;2.20;99.90
53053;DHT22;38934;52.690;6.184;2023-12-04T10:47:39;2.20;99.90
53053;DHT22;38934;52.690;6.184;2023-12-04T10:50:05;2.20;99.90
53053;DHT22;38934;52.690;6.184;2023-12-04T10:52:33;2.20;99.90
53053;DHT22;38934;52.690;6.184;2023-12-04T10:55:01;2.80;99.90
53053;DHT22;38934;52.690;6.184;2023-12-04T10:57:31;2.20;99.90
53053;DHT22;38934;52.690;6.184;2023-12-04T11:00:03;2.20;99.90
53053;DHT22;38934;52.690;6.184;2023-12-04T11:02:29;2.20;99.90
53053;DHT22;38934;52.690;6.184;2023-12-04T11:05:07;3.00;99.90
53053;DHT22;38934;52.690;6.184;2023-12-04T11:07:41;2.20;99.90
53053;DHT22;38934;52.690;6.184;2023-12-04T11:10:08;2.30;99.90
53053;DHT22;38934;52.690;6.184;2023-12-04T11:12:37;2.30;99.90
53053;DHT22;38934;52.690;6.184;2023-12-04T11:15:06;2.30;99.90
53053;DHT22;38934;52.690;6.184;2023-12-04T11:17:34;2.40;99.90
53053;DHT22;38934;52.690;6.184;2023-12-04T11:20:07;2.40;99.90
53053;DHT22;38934;52.690;6.184;2023-12-04T11:22:37;2.40;99.90
53053;DHT22;38934;52.690;6.184;2023-12-04T11:25:06;2.40;99.90
53053;DHT22;38934;52.690;6.184;2023-12-04T11:27:34;2.50;99.90
53053;DHT22;38934;52.690;6.184;2023-12-04T11:30:00;2.50;99.90
53053;DHT22;38934;52.690;6.184;2023-12-04T11:32:28;2.60;99.90
53053;DHT22;38934;52.690;6.184;2023-12-04T11:34:55;3.20;99.90
53053;DHT22;38934;52.690;6.184;2023-12-04T11:37:22;2.60;99.90
53053;DHT22;38934;52.690;6.184;2023-12-04T11:39:53;2.60;99.90
53053;DHT22;38934;52.690;6.184;2023-12-04T11:42:21;2.60;99.90
53053;DHT22;38934;52.690;6.184;2023-12-04T11:44:48;2.70;99.90
53053;DHT22;38934;52.690;6.184;2023-12-04T11:47:15;3.20;99.90
53053;DHT22;38934;52.690;6.184;2023-12-04T11:49:41;2.70;99.90
53053;DHT22;38934;52.690;6.184;2023-12-04T11:52:07;2.80;99.90
53053;DHT22;38934;52.690;6.184;2023-12-04T11:57:26;2.90;99.90
53053;DHT22;38934;52.690;6.184;2023-12-04T12:03:06;2.90;99.90
53053;DHT22;38934;52.690;6.184;2023-12-04T12:05:34;2.90;99.90
53053;DHT22;38934;52.690;6.184;2023-12-04T12:08:03;3.10;99.90
53053;DHT22;38934;52.690;6.184;2023-12-04T12:10:30;3.00;99.90
53053;DHT22;38934;52.690;6.184;2023-12-04T12:12:56;3.40;99.90
53053;DHT22;38934;52.690;6.184;2023-12-04T12:15:25;2.90;99.90
53053;DHT22;38934;52.690;6.184;2023-12-04T12:17:51;2.90;99.90
53053;DHT22;38934;52.690;6.184;2023-12-04T12:20:17;2.90;99.90
53053;DHT22;38934;52.690;6.184;2023-12-04T12:22:43;2.80;99.90
53053;DHT22;38934;52.690;6.184;2023-12-04T12:25:10;2.80;99.90
53053;DHT22;38934;52.690;6.184;2023-12-04T12:27:36;2.80;99.90
53053;DHT22;38934;52.690;6.184;2023-12-04T12:30:03;2.80;99.90
53053;DHT22;38934;52.690;6.184;2023-12-04T12:32:31;2.80;99.90
53053;DHT22;38934;52.690;6.184;2023-12-04T12:34:56;2.80;99.90
53053;DHT22;38934;52.690;6.184;2023-12-04T12:37:22;3.20;99.90
53053;DHT22;38934;52.690;6.184;2023-12-04T12:39:48;2.70;99.90
53053;DHT22;38934;52.690;6.184;2023-12-04T12:42:24;2.60;99.90
53053;DHT22;38934;52.690;6.184;2023-12-04T12:44:50;2.60;99.90
53053;DHT22;38934;52.690;6.184;2023-12-04T12:47:16;2.60;99.90
53053;DHT22;38934;52.690;6.184;2023-12-04T12:49:41;2.50;99.90
53053;DHT22;38934;52.690;6.184;2023-12-04T12:52:10;2.60;99.90
53053;DHT22;38934;52.690;6.184;2023-12-04T12:54:43;3.20;99.90
53053;DHT22;38934;52.690;6.184;2023-12-04T12:57:10;2.50;99.90
53053;DHT22;38934;52.690;6.184;2023-12-04T12:59:40;2.50;99.90
53053;DHT22;38934;52.690;6.184;2023-12-04T13:02:06;2.50;99.90
53053;DHT22;38934;52.690;6.184;2023-12-04T13:04:40;2.80;99.90
53053;DHT22;38934;52.690;6.184;2023-12-04T13:07:07;2.50;99.90
53053;DHT22;38934;52.690;6.184;2023-12-04T13:09:33;2.50;99.90
53053;DHT22;38934;52.690;6.184;2023-12-04T13:12:01;2.40;99.90
53053;DHT22;38934;52.690;6.184;2023-12-04T13:14:27;2.50;99.90
53053;DHT22;38934;52.690;6.184;2023-12-04T13:16:53;2.50;99.90
53053;DHT22;38934;52.690;6.184;2023-12-04T13:19:20;2.50;99.90
53053;DHT22;38934;52.690;6.184;2023-12-04T13:21:46;2.50;99.90
53053;DHT22;38934;52.690;6.184;2023-12-04T13:24:12;2.50;99.90
53053;DHT22;38934;52.690;6.184;2023-12-04T13:26:38;2.50;99.90
53053;DHT22;38934;52.690;6.184;2023-12-04T13:29:04;2.50;99.90
53053;DHT22;38934;52.690;6.184;2023-12-04T13:31:34;2.50;99.90
53053;DHT22;38934;52.690;6.184;2023-12-04T13:34:00;2.40;99.90
53053;DHT22;38934;52.690;6.184;2023-12-04T13:36:26;2.40;99.90
53053;DHT22;38934;52.690;6.184;2023-12-04T13:38:52;3.60;99.90
53053;DHT22;38934;52.690;6.184;2023-12-04T13:41:19;2.40;99.90
53053;DHT22;38934;52.690;6.184;2023-12-04T13:44:03;2.40;99.90
53053;DHT22;38934;52.690;6.184;2023-12-04T13:46:29;2.40;99.90
53053;DHT22;38934;52.690;6.184;2023-12-04T13:48:56;2.40;99.90
53053;DHT22;38934;52.690;6.184;2023-12-04T13:51:22;2.40;99.90
53053;DHT22;38934;52.690;6.184;2023-12-04T13:53:48;2.40;99.90
53053;DHT22;38934;52.690;6.184;2023-12-04T13:56:16;2.30;99.90
53053;DHT22;38934;52.690;6.184;2023-12-04T13:59:00;3.10;99.90
53053;DHT22;38934;52.690;6.184;2023-12-04T14:01:27;2.30;99.90
53053;DHT22;38934;52.690;6.184;2023-12-04T14:03:55;2.20;99.90
53053;DHT22;38934;52.690;6.184;2023-12-04T14:06:30;2.60;99.90
53053;DHT22;38934;52.690;6.184;2023-12-04T14:08:56;2.40;99.90
53053;DHT22;38934;52.690;6.184;2023-12-04T14:11:22;2.20;99.90
53053;DHT22;38934;52.690;6.184;2023-12-04T14:13:49;2.20;99.90
53053;DHT22;38934;52.690;6.184;2023-12-04T14:16:18;2.20;99.90
53053;DHT22;38934;52.690;6.184;2023-12-04T14:18:43;2.20;99.90
53053;DHT22;38934;52.690;6.184;2023-12-04T14:21:09;2.20;99.90
53053;DHT22;38934;52.690;6.184;2023-12-04T14:23:35;2.20;99.90
53053;DHT22;38934;52.690;6.184;2023-12-04T14:26:01;2.90;99.90
53053;DHT22;38934;52.690;6.184;2023-12-04T14:28:27;2.20;99.90
53053;DHT22;38934;52.690;6.184;2023-12-04T14:30:53;2.20;99.90
53053;DHT22;38934;52.690;6.184;2023-12-04T14:33:20;2.20;99.90
53053;DHT22;38934;52.690;6.184;2023-12-04T14:35:45;2.30;99.90
53053;DHT22;38934;52.690;6.184;2023-12-04T14:38:11;2.30;99.90
53053;DHT22;38934;52.690;6.184;2023-12-04T14:40:36;2.30;99.90
53053;DHT22;38934;52.690;6.184;2023-12-04T14:43:02;2.40;99.90
53053;DHT22;38934;52.690;6.184;2023-12-04T14:45:28;2.40;99.90
53053;DHT22;38934;52.690;6.184;2023-12-04T14:47:54;2.40;99.90
53053;DHT22;38934;52.690;6.184;2023-12-04T14:50:22;2.40;99.90
53053;DHT22;38934;52.690;6.184;2023-12-04T14:52:49;2.40;99.90
53053;DHT22;38934;52.690;6.184;2023-12-04T14:55:19;2.30;99.90
53053;DHT22;38934;52.690;6.184;2023-12-04T14:57:48;2.30;99.90
53053;DHT22;38934;52.690;6.184;2023-12-04T15:00:32;2.30;99.90
53053;DHT22;38934;52.690;6.184;2023-12-04T15:03:16;2.60;99.90
53053;DHT22;38934;52.690;6.184;2023-12-04T15:06:00;2.20;99.90
53053;DHT22;38934;52.690;6.184;2023-12-04T15:08:31;2.10;99.90
53053;DHT22;38934;52.690;6.184;2023-12-04T15:11:09;2.10;99.90
53053;DHT22;38934;52.690;6.184;2023-12-04T15:13:43;2.10;99.90
53053;DHT22;38934;52.690;6.184;2023-12-04T15:16:20;2.00;99.90
53053;DHT22;38934;52.690;6.184;2023-12-04T15:18:58;2.00;99.90
53053;DHT22;38934;52.690;6.184;2023-12-04T15:21:37;2.00;99.90
53053;DHT22;38934;52.690;6.184;2023-12-04T15:24:03;2.00;99.90
53053;DHT22;38934;52.690;6.184;2023-12-04T15:26:28;2.00;99.90
53053;DHT22;38934;52.690;6.184;2023-12-04T15:28:55;1.90;99.90
53053;DHT22;38934;52.690;6.184;2023-12-04T15:31:21;1.90;99.90
53053;DHT22;38934;52.690;6.184;2023-12-04T15:33:47;1.90;99.90
53053;DHT22;38934;52.690;6.184;2023-12-04T15:36:12;2.10;99.90
53053;DHT22;38934;52.690;6.184;2023-12-04T15:38:38;1.90;99.90
53053;DHT22;38934;52.690;6.184;2023-12-04T15:41:04;1.90;99.90
53053;DHT22;38934;52.690;6.184;2023-12-04T15:43:30;1.80;99.90
53053;DHT22;38934;52.690;6.184;2023-12-04T15:45:56;1.90;99.90
53053;DHT22;38934;52.690;6.184;2023-12-04T15:48:22;1.80;99.90